Terminal Aerodrome Forecast
Issued by NWS

Home | Current Version | Previous Version | Text Only | Print | Product List | Glossary On
Versions: 1 2 3 4 5 6 7 8 9 10 11 12 13 14 15 16 17 18 19 20 21 22 23 24 25 26 27 28 29 30 31 32 33 34 35 36
000
FTUS41 KBOX 092342 CCA
TAFACK
TAF COR
KACK 092342Z 1000/1024 35009KT P6SM FEW008 BKN015 OVC035
     FM100400 34004KT P6SM OVC015
     FM101100 07006KT P6SM VCSH OVC015
     FM101400 11006KT P6SM VCSH OVC015
     FM101700 16006KT P6SM VCSH OVC020
     FM102100 22008KT P6SM -SHRASN BKN015
     FM102200 24009KT P6SM VCSH BKN020=

USA.gov is the U.S. government's official web portal to all federal, state and local government web resources and services.